sensor_id;sensor_type;location;lat;lon;timestamp;P1;durP1;ratioP1;P2;durP2;ratioP2
61704;SDS011;47627;48.078;11.522;2023-04-24T00:48:46;0.85;;;0.70;;
61704;SDS011;47627;48.078;11.522;2023-04-24T00:51:11;1.00;;;0.88;;
61704;SDS011;47627;48.078;11.522;2023-04-24T04:29:36;1.35;;;0.80;;
61704;SDS011;47627;48.078;11.522;2023-04-24T04:32:04;1.73;;;0.60;;
61704;SDS011;47627;48.078;11.522;2023-04-24T04:37:36;2.55;;;0.90;;
61704;SDS011;47627;48.078;11.522;2023-04-24T04:40:20;1.67;;;0.80;;
61704;SDS011;47627;48.078;11.522;2023-04-24T04:42:54;3.05;;;0.50;;
61704;SDS011;47627;48.078;11.522;2023-04-24T04:45:20;1.95;;;0.82;;
61704;SDS011;47627;48.078;11.522;2023-04-24T04:48:09;1.92;;;0.55;;
61704;SDS011;47627;48.078;11.522;2023-04-24T04:50:37;1.25;;;0.50;;
61704;SDS011;47627;48.078;11.522;2023-04-24T04:53:06;5.07;;;0.55;;
61704;SDS011;47627;48.078;11.522;2023-04-24T04:55:35;0.68;;;0.68;;
61704;SDS011;47627;48.078;11.522;2023-04-24T04:58:08;1.77;;;0.50;;
61704;SDS011;47627;48.078;11.522;2023-04-24T05:00:33;0.63;;;0.60;;
61704;SDS011;47627;48.078;11.522;2023-04-24T05:05:57;1.85;;;0.50;;
61704;SDS011;47627;48.078;11.522;2023-04-24T05:08:34;0.43;;;0.40;;
61704;SDS011;47627;48.078;11.522;2023-04-24T05:11:00;2.15;;;0.70;;
61704;SDS011;47627;48.078;11.522;2023-04-24T05:21:24;0.85;;;0.40;;
61704;SDS011;47627;48.078;11.522;2023-04-24T05:24:08;1.40;;;0.43;;
61704;SDS011;47627;48.078;11.522;2023-04-24T05:27:00;0.80;;;0.40;;
61704;SDS011;47627;48.078;11.522;2023-04-24T05:29:33;4.90;;;0.85;;
61704;SDS011;47627;48.078;11.522;2023-04-24T05:31:58;0.50;;;0.50;;
61704;SDS011;47627;48.078;11.522;2023-04-24T05:34:24;0.40;;;0.40;;
61704;SDS011;47627;48.078;11.522;2023-04-24T05:36:53;1.35;;;0.47;;
61704;SDS011;47627;48.078;11.522;2023-04-24T05:39:19;0.85;;;0.50;;
61704;SDS011;47627;48.078;11.522;2023-04-24T05:41:44;0.90;;;0.43;;
61704;SDS011;47627;48.078;11.522;2023-04-24T05:44:10;0.40;;;0.40;;
61704;SDS011;47627;48.078;11.522;2023-04-24T05:46:35;0.50;;;0.50;;
61704;SDS011;47627;48.078;11.522;2023-04-24T05:49:00;1.73;;;0.40;;
61704;SDS011;47627;48.078;11.522;2023-04-24T05:51:25;0.38;;;0.38;;
61704;SDS011;47627;48.078;11.522;2023-04-24T06:02:05;0.40;;;0.40;;
61704;SDS011;47627;48.078;11.522;2023-04-24T06:04:31;1.02;;;0.63;;
61704;SDS011;47627;48.078;11.522;2023-04-24T06:06:57;1.52;;;0.40;;
61704;SDS011;47627;48.078;11.522;2023-04-24T06:09:23;1.90;;;0.40;;
61704;SDS011;47627;48.078;11.522;2023-04-24T06:11:49;0.40;;;0.40;;
61704;SDS011;47627;48.078;11.522;2023-04-24T06:22:11;1.05;;;0.50;;
61704;SDS011;47627;48.078;11.522;2023-04-24T06:24:37;1.48;;;0.40;;
61704;SDS011;47627;48.078;11.522;2023-04-24T06:27:02;0.28;;;0.28;;
61704;SDS011;47627;48.078;11.522;2023-04-24T06:29:28;0.65;;;0.65;;
61704;SDS011;47627;48.078;11.522;2023-04-24T06:31:53;5.88;;;3.47;;
61704;SDS011;47627;48.078;11.522;2023-04-24T06:34:18;1.60;;;1.50;;
61704;SDS011;47627;48.078;11.522;2023-04-24T06:36:43;0.57;;;0.57;;
61704;SDS011;47627;48.078;11.522;2023-04-24T06:39:09;0.47;;;0.47;;
61704;SDS011;47627;48.078;11.522;2023-04-24T06:41:34;1.05;;;0.68;;
61704;SDS011;47627;48.078;11.522;2023-04-24T06:43:59;0.50;;;0.50;;
61704;SDS011;47627;48.078;11.522;2023-04-24T06:46:25;0.80;;;0.52;;
61704;SDS011;47627;48.078;11.522;2023-04-24T06:48:52;0.60;;;0.60;;
61704;SDS011;47627;48.078;11.522;2023-04-24T06:51:21;0.68;;;0.68;;
61704;SDS011;47627;48.078;11.522;2023-04-24T06:56:19;1.10;;;0.60;;
61704;SDS011;47627;48.078;11.522;2023-04-24T06:58:45;0.45;;;0.45;;
61704;SDS011;47627;48.078;11.522;2023-04-24T07:01:10;1.00;;;0.70;;
61704;SDS011;47627;48.078;11.522;2023-04-24T07:03:36;1.35;;;0.60;;
61704;SDS011;47627;48.078;11.522;2023-04-24T07:06:01;0.85;;;0.47;;
61704;SDS011;47627;48.078;11.522;2023-04-24T07:08:28;1.02;;;0.60;;
61704;SDS011;47627;48.078;11.522;2023-04-24T07:10:55;2.22;;;1.13;;
61704;SDS011;47627;48.078;11.522;2023-04-24T07:13:20;1.17;;;0.95;;
61704;SDS011;47627;48.078;11.522;2023-04-24T07:15:46;1.48;;;0.65;;
61704;SDS011;47627;48.078;11.522;2023-04-24T07:18:11;0.52;;;0.50;;
61704;SDS011;47627;48.078;11.522;2023-04-24T07:20:36;3.20;;;0.90;;
61704;SDS011;47627;48.078;11.522;2023-04-24T07:28:25;2.10;;;0.70;;
61704;SDS011;47627;48.078;11.522;2023-04-24T07:30:51;0.80;;;0.60;;
61704;SDS011;47627;48.078;11.522;2023-04-24T07:33:18;0.95;;;0.60;;
61704;SDS011;47627;48.078;11.522;2023-04-24T07:35:44;0.30;;;0.30;;
61704;SDS011;47627;48.078;11.522;2023-04-24T07:38:09;2.10;;;0.40;;
61704;SDS011;47627;48.078;11.522;2023-04-24T07:40:34;0.75;;;0.60;;
61704;SDS011;47627;48.078;11.522;2023-04-24T07:42:59;5.60;;;0.75;;
61704;SDS011;47627;48.078;11.522;2023-04-24T07:45:25;1.73;;;0.47;;
61704;SDS011;47627;48.078;11.522;2023-04-24T07:47:52;1.08;;;0.40;;
61704;SDS011;47627;48.078;11.522;2023-04-24T07:50:18;0.20;;;0.20;;
61704;SDS011;47627;48.078;11.522;2023-04-24T07:52:43;1.67;;;0.50;;
61704;SDS011;47627;48.078;11.522;2023-04-24T07:55:08;0.80;;;0.65;;
61704;SDS011;47627;48.078;11.522;2023-04-24T07:57:34;0.80;;;0.43;;
61704;SDS011;47627;48.078;11.522;2023-04-24T07:59:59;1.10;;;0.55;;
61704;SDS011;47627;48.078;11.522;2023-04-24T08:02:24;0.40;;;0.40;;
61704;SDS011;47627;48.078;11.522;2023-04-24T08:04:52;0.77;;;0.30;;
61704;SDS011;47627;48.078;11.522;2023-04-24T08:07:19;0.55;;;0.40;;
61704;SDS011;47627;48.078;11.522;2023-04-24T08:09:44;0.30;;;0.30;;
61704;SDS011;47627;48.078;11.522;2023-04-24T08:12:09;0.50;;;0.28;;
61704;SDS011;47627;48.078;11.522;2023-04-24T08:14:34;0.52;;;0.30;;
61704;SDS011;47627;48.078;11.522;2023-04-24T08:17:00;1.17;;;1.10;;
61704;SDS011;47627;48.078;11.522;2023-04-24T08:19:26;1.52;;;0.70;;
61704;SDS011;47627;48.078;11.522;2023-04-24T08:21:51;2.15;;;0.63;;
61704;SDS011;47627;48.078;11.522;2023-04-24T08:24:16;1.10;;;0.95;;
61704;SDS011;47627;48.078;11.522;2023-04-24T08:26:42;0.80;;;0.50;;
61704;SDS011;47627;48.078;11.522;2023-04-24T08:29:07;1.50;;;0.50;;
61704;SDS011;47627;48.078;11.522;2023-04-24T08:31:33;0.40;;;0.40;;
61704;SDS011;47627;48.078;11.522;2023-04-24T08:33:58;1.30;;;0.40;;
61704;SDS011;47627;48.078;11.522;2023-04-24T08:36:24;0.50;;;0.50;;
61704;SDS011;47627;48.078;11.522;2023-04-24T08:38:51;0.85;;;0.50;;
61704;SDS011;47627;48.078;11.522;2023-04-24T08:41:16;0.63;;;0.60;;
61704;SDS011;47627;48.078;11.522;2023-04-24T08:52:10;1.75;;;0.75;;
61704;SDS011;47627;48.078;11.522;2023-04-24T08:54:38;0.80;;;0.60;;
61704;SDS011;47627;48.078;11.522;2023-04-24T08:57:04;1.25;;;0.60;;
61704;SDS011;47627;48.078;11.522;2023-04-24T08:59:32;1.15;;;0.80;;
61704;SDS011;47627;48.078;11.522;2023-04-24T09:01:59;0.80;;;0.68;;
61704;SDS011;47627;48.078;11.522;2023-04-24T09:04:24;0.70;;;0.70;;
61704;SDS011;47627;48.078;11.522;2023-04-24T09:06:51;1.13;;;0.68;;
61704;SDS011;47627;48.078;11.522;2023-04-24T09:09:17;1.73;;;0.88;;
61704;SDS011;47627;48.078;11.522;2023-04-24T09:11:43;0.80;;;0.80;;
61704;SDS011;47627;48.078;11.522;2023-04-24T09:14:09;1.30;;;0.85;;
61704;SDS011;47627;48.078;11.522;2023-04-24T09:16:35;1.13;;;0.85;;
61704;SDS011;47627;48.078;11.522;2023-04-24T09:19:00;0.80;;;0.80;;
61704;SDS011;47627;48.078;11.522;2023-04-24T09:21:26;1.35;;;1.00;;
61704;SDS011;47627;48.078;11.522;2023-04-24T09:24:00;1.33;;;0.70;;
61704;SDS011;47627;48.078;11.522;2023-04-24T09:26:25;2.78;;;0.80;;
61704;SDS011;47627;48.078;11.522;2023-04-24T09:28:53;2.05;;;1.08;;
61704;SDS011;47627;48.078;11.522;2023-04-24T09:31:18;1.90;;;0.80;;
61704;SDS011;47627;48.078;11.522;2023-04-24T09:36:31;1.05;;;0.73;;
61704;SDS011;47627;48.078;11.522;2023-04-24T09:39:02;0.85;;;0.70;;
61704;SDS011;47627;48.078;11.522;2023-04-24T09:41:28;1.10;;;0.88;;
61704;SDS011;47627;48.078;11.522;2023-04-24T09:43:56;0.90;;;0.73;;
61704;SDS011;47627;48.078;11.522;2023-04-24T09:46:28;1.73;;;0.82;;
61704;SDS011;47627;48.078;11.522;2023-04-24T09:48:53;1.10;;;0.95;;
61704;SDS011;47627;48.078;11.522;2023-04-24T09:51:19;2.20;;;1.10;;
61704;SDS011;47627;48.078;11.522;2023-04-24T09:53:57;1.63;;;1.27;;
61704;SDS011;47627;48.078;11.522;2023-04-24T09:56:24;1.10;;;0.98;;
61704;SDS011;47627;48.078;11.522;2023-04-24T09:58:50;1.83;;;0.90;;
61704;SDS011;47627;48.078;11.522;2023-04-24T10:01:15;1.27;;;0.70;;
61704;SDS011;47627;48.078;11.522;2023-04-24T10:03:41;1.05;;;0.85;;
61704;SDS011;47627;48.078;11.522;2023-04-24T10:06:07;2.30;;;0.90;;
61704;SDS011;47627;48.078;11.522;2023-04-24T10:08:34;0.90;;;0.82;;
61704;SDS011;47627;48.078;11.522;2023-04-24T10:11:00;3.80;;;0.80;;
61704;SDS011;47627;48.078;11.522;2023-04-24T10:13:26;2.17;;;1.15;;
61704;SDS011;47627;48.078;11.522;2023-04-24T10:15:51;1.15;;;0.77;;
61704;SDS011;47627;48.078;11.522;2023-04-24T10:18:16;1.52;;;1.00;;
61704;SDS011;47627;48.078;11.522;2023-04-24T10:20:42;0.70;;;0.70;;
61704;SDS011;47627;48.078;11.522;2023-04-24T10:23:07;1.10;;;0.82;;
61704;SDS011;47627;48.078;11.522;2023-04-24T10:25:34;2.45;;;0.80;;
61704;SDS011;47627;48.078;11.522;2023-04-24T10:28:00;1.25;;;1.00;;
61704;SDS011;47627;48.078;11.522;2023-04-24T10:30:29;2.25;;;1.10;;
61704;SDS011;47627;48.078;11.522;2023-04-24T10:32:55;1.85;;;1.10;;
61704;SDS011;47627;48.078;11.522;2023-04-24T10:35:21;0.90;;;0.90;;
61704;SDS011;47627;48.078;11.522;2023-04-24T10:37:50;1.00;;;0.82;;
61704;SDS011;47627;48.078;11.522;2023-04-24T10:40:17;2.55;;;1.00;;
61704;SDS011;47627;48.078;11.522;2023-04-24T10:51:42;1.00;;;0.80;;
61704;SDS011;47627;48.078;11.522;2023-04-24T10:59:35;0.82;;;0.60;;
61704;SDS011;47627;48.078;11.522;2023-04-24T11:02:00;1.35;;;0.60;;
61704;SDS011;47627;48.078;11.522;2023-04-24T11:04:28;1.17;;;0.60;;
61704;SDS011;47627;48.078;11.522;2023-04-24T11:06:54;0.80;;;0.40;;
61704;SDS011;47627;48.078;11.522;2023-04-24T11:09:20;0.50;;;0.50;;
61704;SDS011;47627;48.078;11.522;2023-04-24T11:11:46;0.60;;;0.50;;
61704;SDS011;47627;48.078;11.522;2023-04-24T11:14:15;0.63;;;0.60;;
61704;SDS011;47627;48.078;11.522;2023-04-24T11:26:59;0.50;;;0.50;;
61704;SDS011;47627;48.078;11.522;2023-04-24T11:34:47;0.70;;;0.65;;
61704;SDS011;47627;48.078;11.522;2023-04-24T11:37:12;0.88;;;0.80;;
61704;SDS011;47627;48.078;11.522;2023-04-24T11:39:38;1.58;;;0.95;;
61704;SDS011;47627;48.078;11.522;2023-04-24T11:42:03;0.93;;;0.77;;
61704;SDS011;47627;48.078;11.522;2023-04-24T11:44:31;1.40;;;0.90;;
61704;SDS011;47627;48.078;11.522;2023-04-24T11:46:56;1.85;;;0.80;;
61704;SDS011;47627;48.078;11.522;2023-04-24T11:49:22;2.17;;;0.98;;
61704;SDS011;47627;48.078;11.522;2023-04-24T11:51:47;1.25;;;0.90;;
61704;SDS011;47627;48.078;11.522;2023-04-24T11:54:12;3.13;;;0.95;;
61704;SDS011;47627;48.078;11.522;2023-04-24T11:56:38;2.25;;;0.88;;
61704;SDS011;47627;48.078;11.522;2023-04-24T11:59:03;1.98;;;0.90;;
61704;SDS011;47627;48.078;11.522;2023-04-24T12:01:29;1.00;;;0.80;;
61704;SDS011;47627;48.078;11.522;2023-04-24T12:03:59;1.98;;;1.30;;
61704;SDS011;47627;48.078;11.522;2023-04-24T12:06:24;1.67;;;1.00;;
61704;SDS011;47627;48.078;11.522;2023-04-24T12:08:50;1.35;;;1.25;;
61704;SDS011;47627;48.078;11.522;2023-04-24T12:11:17;2.42;;;1.23;;
61704;SDS011;47627;48.078;11.522;2023-04-24T12:13:43;1.58;;;1.40;;
61704;SDS011;47627;48.078;11.522;2023-04-24T12:16:08;1.73;;;1.35;;
61704;SDS011;47627;48.078;11.522;2023-04-24T12:18:33;4.35;;;1.92;;
61704;SDS011;47627;48.078;11.522;2023-04-24T12:29:19;5.60;;;1.80;;
61704;SDS011;47627;48.078;11.522;2023-04-24T12:31:44;5.35;;;1.25;;
61704;SDS011;47627;48.078;11.522;2023-04-24T12:34:19;2.50;;;1.30;;
61704;SDS011;47627;48.078;11.522;2023-04-24T12:36:45;2.83;;;1.20;;
61704;SDS011;47627;48.078;11.522;2023-04-24T12:39:19;2.40;;;1.10;;
61704;SDS011;47627;48.078;11.522;2023-04-24T12:41:50;2.15;;;1.40;;
61704;SDS011;47627;48.078;11.522;2023-04-24T12:44:15;3.03;;;1.27;;
61704;SDS011;47627;48.078;11.522;2023-04-24T12:46:40;2.80;;;1.15;;
61704;SDS011;47627;48.078;11.522;2023-04-24T12:49:05;1.65;;;1.35;;
61704;SDS011;47627;48.078;11.522;2023-04-24T12:51:31;3.05;;;1.63;;
61704;SDS011;47627;48.078;11.522;2023-04-24T12:53:56;3.67;;;1.67;;
61704;SDS011;47627;48.078;11.522;2023-04-24T12:56:21;2.97;;;1.55;;
61704;SDS011;47627;48.078;11.522;2023-04-24T12:58:47;4.68;;;1.70;;
61704;SDS011;47627;48.078;11.522;2023-04-24T13:01:12;3.42;;;1.60;;
61704;SDS011;47627;48.078;11.522;2023-04-24T13:03:37;2.60;;;1.65;;
61704;SDS011;47627;48.078;11.522;2023-04-24T13:06:02;3.90;;;1.80;;
61704;SDS011;47627;48.078;11.522;2023-04-24T13:08:28;3.17;;;1.50;;
61704;SDS011;47627;48.078;11.522;2023-04-24T13:10:53;2.53;;;1.73;;
61704;SDS011;47627;48.078;11.522;2023-04-24T13:21:36;1.60;;;1.10;;
61704;SDS011;47627;48.078;11.522;2023-04-24T13:24:02;3.05;;;1.30;;
61704;SDS011;47627;48.078;11.522;2023-04-24T13:26:28;2.70;;;1.30;;
61704;SDS011;47627;48.078;11.522;2023-04-24T13:28:54;2.83;;;1.30;;
61704;SDS011;47627;48.078;11.522;2023-04-24T13:31:19;2.47;;;1.90;;
61704;SDS011;47627;48.078;11.522;2023-04-24T13:49:56;4.25;;;1.80;;
61704;SDS011;47627;48.078;11.522;2023-04-24T13:52:21;2.22;;;1.55;;
61704;SDS011;47627;48.078;11.522;2023-04-24T13:54:47;3.40;;;1.30;;
61704;SDS011;47627;48.078;11.522;2023-04-24T13:57:13;1.13;;;1.08;;
61704;SDS011;47627;48.078;11.522;2023-04-24T13:59:39;2.83;;;1.40;;
61704;SDS011;47627;48.078;11.522;2023-04-24T14:02:05;4.25;;;1.85;;
61704;SDS011;47627;48.078;11.522;2023-04-24T14:04:30;3.80;;;1.50;;
61704;SDS011;47627;48.078;11.522;2023-04-24T14:06:55;3.92;;;1.45;;
61704;SDS011;47627;48.078;11.522;2023-04-24T14:09:20;3.45;;;1.65;;
61704;SDS011;47627;48.078;11.522;2023-04-24T14:11:45;4.65;;;1.63;;
61704;SDS011;47627;48.078;11.522;2023-04-24T14:14:11;3.65;;;1.40;;
61704;SDS011;47627;48.078;11.522;2023-04-24T14:16:36;1.52;;;1.00;;
61704;SDS011;47627;48.078;11.522;2023-04-24T14:19:01;3.58;;;1.15;;
61704;SDS011;47627;48.078;11.522;2023-04-24T14:21:26;9.63;;;1.45;;
61704;SDS011;47627;48.078;11.522;2023-04-24T14:23:52;5.15;;;1.50;;
61704;SDS011;47627;48.078;11.522;2023-04-24T14:26:17;2.83;;;1.38;;
61704;SDS011;47627;48.078;11.522;2023-04-24T14:28:42;3.13;;;1.10;;
61704;SDS011;47627;48.078;11.522;2023-04-24T14:31:07;2.05;;;1.30;;
61704;SDS011;47627;48.078;11.522;2023-04-24T14:33:33;2.20;;;1.20;;
61704;SDS011;47627;48.078;11.522;2023-04-24T14:35:58;1.30;;;1.20;;
61704;SDS011;47627;48.078;11.522;2023-04-24T14:38:23;1.23;;;1.00;;
61704;SDS011;47627;48.078;11.522;2023-04-24T14:40:49;2.25;;;0.90;;
61704;SDS011;47627;48.078;11.522;2023-04-24T14:43:14;3.83;;;1.20;;
61704;SDS011;47627;48.078;11.522;2023-04-24T14:45:39;4.03;;;1.35;;
61704;SDS011;47627;48.078;11.522;2023-04-24T14:48:06;2.35;;;1.38;;
61704;SDS011;47627;48.078;11.522;2023-04-24T14:50:33;4.18;;;1.20;;
61704;SDS011;47627;48.078;11.522;2023-04-24T14:52:58;3.95;;;1.20;;
61704;SDS011;47627;48.078;11.522;2023-04-24T14:55:24;3.35;;;1.27;;
61704;SDS011;47627;48.078;11.522;2023-04-24T14:57:49;2.33;;;1.15;;
61704;SDS011;47627;48.078;11.522;2023-04-24T15:00:15;4.40;;;1.40;;
61704;SDS011;47627;48.078;11.522;2023-04-24T15:02:41;1.83;;;1.17;;
61704;SDS011;47627;48.078;11.522;2023-04-24T15:05:09;2.20;;;1.27;;
61704;SDS011;47627;48.078;11.522;2023-04-24T15:07:35;2.05;;;0.95;;
61704;SDS011;47627;48.078;11.522;2023-04-24T15:10:01;1.25;;;1.10;;
61704;SDS011;47627;48.078;11.522;2023-04-24T15:12:26;2.10;;;0.90;;
61704;SDS011;47627;48.078;11.522;2023-04-24T15:14:51;2.00;;;1.20;;
61704;SDS011;47627;48.078;11.522;2023-04-24T15:17:17;4.28;;;1.33;;
61704;SDS011;47627;48.078;11.522;2023-04-24T15:19:42;2.42;;;0.90;;
61704;SDS011;47627;48.078;11.522;2023-04-24T15:22:07;2.92;;;1.15;;
61704;SDS011;47627;48.078;11.522;2023-04-24T15:24:33;3.13;;;0.98;;
61704;SDS011;47627;48.078;11.522;2023-04-24T15:26:58;2.70;;;1.10;;
61704;SDS011;47627;48.078;11.522;2023-04-24T15:29:24;2.50;;;0.90;;
61704;SDS011;47627;48.078;11.522;2023-04-24T15:31:49;4.13;;;1.38;;
61704;SDS011;47627;48.078;11.522;2023-04-24T15:34:15;1.48;;;1.10;;
61704;SDS011;47627;48.078;11.522;2023-04-24T15:36:40;4.18;;;1.20;;
61704;SDS011;47627;48.078;11.522;2023-04-24T15:39:05;2.10;;;1.25;;
61704;SDS011;47627;48.078;11.522;2023-04-24T15:41:30;1.67;;;0.90;;
61704;SDS011;47627;48.078;11.522;2023-04-24T15:43:56;1.35;;;1.10;;
61704;SDS011;47627;48.078;11.522;2023-04-24T15:46:22;2.33;;;1.10;;
61704;SDS011;47627;48.078;11.522;2023-04-24T15:48:47;2.03;;;1.00;;
61704;SDS011;47627;48.078;11.522;2023-04-24T15:51:12;7.60;;;1.23;;
61704;SDS011;47627;48.078;11.522;2023-04-24T15:53:37;2.40;;;1.20;;
61704;SDS011;47627;48.078;11.522;2023-04-24T15:56:02;4.03;;;1.10;;
61704;SDS011;47627;48.078;11.522;2023-04-24T15:58:28;1.85;;;1.00;;
61704;SDS011;47627;48.078;11.522;2023-04-24T16:00:53;2.10;;;1.20;;
61704;SDS011;47627;48.078;11.522;2023-04-24T16:03:19;3.17;;;1.30;;
61704;SDS011;47627;48.078;11.522;2023-04-24T16:05:44;4.78;;;1.40;;
61704;SDS011;47627;48.078;11.522;2023-04-24T16:08:09;2.40;;;1.20;;
61704;SDS011;47627;48.078;11.522;2023-04-24T16:10:34;3.22;;;1.23;;
61704;SDS011;47627;48.078;11.522;2023-04-24T16:13:00;2.40;;;0.88;;
61704;SDS011;47627;48.078;11.522;2023-04-24T16:15:27;1.15;;;0.90;;
61704;SDS011;47627;48.078;11.522;2023-04-24T16:17:52;2.08;;;1.15;;
61704;SDS011;47627;48.078;11.522;2023-04-24T16:20:17;2.55;;;1.33;;
61704;SDS011;47627;48.078;11.522;2023-04-24T16:22:43;4.78;;;1.25;;
61704;SDS011;47627;48.078;11.522;2023-04-24T16:25:08;1.77;;;1.00;;
61704;SDS011;47627;48.078;11.522;2023-04-24T16:27:34;1.20;;;1.08;;
61704;SDS011;47627;48.078;11.522;2023-04-24T16:29:59;4.05;;;1.67;;
61704;SDS011;47627;48.078;11.522;2023-04-24T16:32:24;4.30;;;1.30;;
61704;SDS011;47627;48.078;11.522;2023-04-24T16:34:50;1.52;;;1.05;;
61704;SDS011;47627;48.078;11.522;2023-04-24T16:37:15;1.52;;;0.93;;
61704;SDS011;47627;48.078;11.522;2023-04-24T16:39:41;2.70;;;1.10;;
61704;SDS011;47627;48.078;11.522;2023-04-24T16:42:10;3.42;;;0.85;;
61704;SDS011;47627;48.078;11.522;2023-04-24T16:44:37;2.38;;;0.80;;
61704;SDS011;47627;48.078;11.522;2023-04-24T16:47:03;1.35;;;0.70;;
61704;SDS011;47627;48.078;11.522;2023-04-24T16:49:28;2.08;;;0.93;;
61704;SDS011;47627;48.078;11.522;2023-04-24T16:51:56;1.70;;;0.80;;
61704;SDS011;47627;48.078;11.522;2023-04-24T16:54:22;2.35;;;0.90;;
61704;SDS011;47627;48.078;11.522;2023-04-24T16:56:47;2.53;;;1.30;;
61704;SDS011;47627;48.078;11.522;2023-04-24T16:59:13;1.35;;;0.90;;
61704;SDS011;47627;48.078;11.522;2023-04-24T17:01:38;1.67;;;1.00;;
61704;SDS011;47627;48.078;11.522;2023-04-24T17:52:39;1.95;;;0.70;;
61704;SDS011;47627;48.078;11.522;2023-04-24T17:57:40;3.28;;;1.00;;
61704;SDS011;47627;48.078;11.522;2023-04-24T18:00:06;0.82;;;0.68;;
61704;SDS011;47627;48.078;11.522;2023-04-24T18:02:32;3.17;;;0.90;;
61704;SDS011;47627;48.078;11.522;2023-04-24T19:36:57;2.58;;;1.20;;
61704;SDS011;47627;48.078;11.522;2023-04-24T19:39:22;4.00;;;2.00;;
61704;SDS011;47627;48.078;11.522;2023-04-24T19:41:47;3.08;;;1.83;;
61704;SDS011;47627;48.078;11.522;2023-04-24T20:11:13;1.50;;;1.40;;
61704;SDS011;47627;48.078;11.522;2023-04-24T20:13:38;2.72;;;1.50;;
61704;SDS011;47627;48.078;11.522;2023-04-24T20:16:03;3.83;;;1.80;;
61704;SDS011;47627;48.078;11.522;2023-04-24T20:18:29;3.15;;;1.65;;
61704;SDS011;47627;48.078;11.522;2023-04-24T20:20:54;4.57;;;2.90;;
61704;SDS011;47627;48.078;11.522;2023-04-24T20:23:22;4.35;;;2.45;;
61704;SDS011;47627;48.078;11.522;2023-04-24T20:25:47;5.95;;;3.08;;
61704;SDS011;47627;48.078;11.522;2023-04-24T20:28:15;7.68;;;3.42;;
61704;SDS011;47627;48.078;11.522;2023-04-24T20:30:41;4.22;;;2.25;;
61704;SDS011;47627;48.078;11.522;2023-04-24T20:35:57;3.55;;;1.30;;
61704;SDS011;47627;48.078;11.522;2023-04-24T20:38:22;3.00;;;1.63;;
61704;SDS011;47627;48.078;11.522;2023-04-24T20:40:48;3.58;;;1.70;;
61704;SDS011;47627;48.078;11.522;2023-04-24T20:43:13;1.75;;;1.35;;
61704;SDS011;47627;48.078;11.522;2023-04-24T20:45:39;2.55;;;1.70;;
61704;SDS011;47627;48.078;11.522;2023-04-24T20:48:04;6.93;;;1.60;;
61704;SDS011;47627;48.078;11.522;2023-04-24T20:50:31;3.38;;;1.50;;
61704;SDS011;47627;48.078;11.522;2023-04-24T20:52:58;1.88;;;1.30;;
61704;SDS011;47627;48.078;11.522;2023-04-24T21:19:40;2.40;;;1.80;;
61704;SDS011;47627;48.078;11.522;2023-04-24T21:22:05;2.75;;;1.80;;
